createdAt,value
2018-06-04T00:01:00.738Z,54.29
2018-06-04T00:03:26.999Z,54.02
2018-06-04T00:05:53.332Z,53.85
2018-06-04T00:08:19.619Z,53.67
2018-06-04T00:10:45.909Z,53.55
2018-06-04T00:13:12.203Z,53.46
2018-06-04T00:15:38.528Z,53.50
2018-06-04T00:18:04.827Z,53.40
2018-06-04T00:20:31.120Z,53.48
2018-06-04T00:22:57.418Z,53.52
2018-06-04T00:25:23.713Z,53.59
2018-06-04T00:27:50.015Z,53.80
2018-06-04T00:30:16.305Z,53.69
2018-06-04T00:32:42.630Z,53.73
2018-06-04T00:35:08.920Z,53.76
2018-06-04T00:37:35.216Z,58.10
2018-06-04T00:40:01.503Z,57.29
2018-06-04T00:42:27.792Z,56.04
2018-06-04T00:44:54.120Z,55.47
2018-06-04T00:47:20.416Z,55.11
2018-06-04T00:49:46.708Z,54.69
2018-06-04T00:52:12.991Z,54.63
2018-06-04T00:54:39.286Z,54.55
2018-06-04T00:57:05.577Z,54.42
2018-06-04T00:59:31.873Z,54.71
2018-06-04T01:01:58.165Z,54.89
2018-06-04T01:04:24.512Z,54.89
2018-06-04T01:06:50.818Z,54.99
2018-06-04T01:09:17.140Z,55.03
2018-06-04T01:11:43.439Z,55.15
2018-06-04T01:14:09.724Z,55.06
2018-06-04T01:16:36.027Z,55.25
2018-06-04T01:19:02.321Z,55.46
2018-06-04T01:21:28.619Z,55.68
2018-06-04T01:23:54.917Z,55.86
2018-06-04T01:26:21.208Z,55.80
2018-06-04T01:28:47.510Z,56.04
2018-06-04T01:31:13.807Z,56.21
2018-06-04T01:33:40.110Z,56.12
2018-06-04T01:36:06.401Z,56.27
2018-06-04T01:38:32.691Z,56.37
2018-06-04T01:40:58.990Z,56.31
2018-06-04T01:43:25.279Z,56.38
2018-06-04T01:45:51.575Z,56.68
2018-06-04T01:48:17.871Z,56.85
2018-06-04T01:50:44.159Z,56.82
2018-06-04T01:53:10.451Z,56.99
2018-06-04T01:55:36.763Z,57.02
2018-06-04T01:58:03.053Z,57.02
2018-06-04T02:00:29.396Z,57.09
2018-06-04T02:02:55.660Z,57.14
2018-06-04T02:05:21.992Z,57.34
2018-06-04T02:07:48.284Z,57.61
2018-06-04T02:10:14.573Z,57.77
2018-06-04T02:12:40.898Z,57.87
2018-06-04T02:15:07.196Z,57.92
2018-06-04T02:17:33.487Z,58.05
2018-06-04T02:19:59.774Z,58.11
2018-06-04T02:22:26.103Z,58.15
2018-06-04T02:24:52.392Z,58.26
2018-06-04T02:27:18.683Z,58.37
2018-06-04T02:29:44.980Z,58.44
2018-06-04T02:32:11.276Z,58.56
2018-06-04T02:34:37.566Z,58.66
2018-06-04T02:37:03.874Z,58.75
2018-06-04T02:39:30.203Z,58.77
2018-06-04T02:41:56.497Z,58.83
2018-06-04T02:44:22.792Z,58.86
2018-06-04T02:46:49.093Z,58.67
2018-06-04T02:49:15.376Z,58.79
2018-06-04T02:51:41.712Z,58.87
2018-06-04T02:54:08.009Z,58.86
2018-06-04T02:56:34.343Z,59.05
2018-06-04T02:59:00.630Z,58.99
2018-06-04T03:01:26.921Z,59.02
2018-06-04T03:03:53.214Z,59.06
2018-06-04T03:06:19.499Z,59.12
2018-06-04T03:08:45.792Z,59.09
2018-06-04T03:11:12.079Z,59.09
2018-06-04T03:13:38.372Z,59.20
2018-06-04T03:16:04.659Z,59.11
2018-06-04T03:18:30.954Z,59.28
2018-06-04T03:20:57.259Z,59.33
2018-06-04T03:23:23.549Z,59.29
2018-06-04T03:25:49.837Z,59.37
2018-06-04T03:28:16.132Z,59.49
2018-06-04T03:30:42.481Z,59.47
2018-06-04T03:33:08.769Z,59.38
2018-06-04T03:35:35.074Z,59.42
2018-06-04T03:38:01.361Z,59.45
2018-06-04T03:40:27.659Z,59.40
2018-06-04T03:42:53.952Z,59.41
2018-06-04T03:45:20.256Z,59.42
2018-06-04T03:47:46.546Z,59.44
2018-06-04T03:50:12.837Z,59.44
2018-06-04T03:52:39.123Z,59.57
2018-06-04T03:55:05.439Z,59.45
2018-06-04T03:57:31.736Z,59.40
2018-06-04T03:59:58.028Z,59.31
2018-06-04T04:02:24.320Z,59.32
2018-06-04T04:04:50.630Z,59.22
2018-06-04T04:07:16.917Z,59.24
2018-06-04T04:09:43.217Z,59.85
2018-06-04T04:12:09.503Z,61.06
2018-06-04T04:14:35.801Z,60.50
2018-06-04T04:17:02.090Z,60.85
2018-06-04T04:19:28.392Z,61.57
2018-06-04T04:21:54.721Z,60.77
2018-06-04T04:24:21.019Z,60.55
2018-06-04T04:26:47.308Z,60.08
2018-06-04T04:29:13.600Z,58.94
2018-06-04T04:31:39.898Z,58.36
2018-06-04T04:34:06.188Z,58.18
2018-06-04T04:36:32.481Z,58.42
2018-06-04T04:38:58.813Z,59.08
2018-06-04T04:41:25.098Z,58.63
2018-06-04T04:43:51.445Z,57.95
2018-06-04T04:46:17.730Z,57.03
2018-06-04T04:48:44.020Z,56.65
2018-06-04T04:51:10.317Z,57.02
2018-06-04T04:53:36.603Z,57.42
2018-06-04T04:56:02.898Z,57.48
2018-06-04T04:58:29.199Z,57.68
2018-06-04T05:00:55.497Z,57.41
2018-06-04T05:03:21.783Z,57.31
2018-06-04T05:05:48.114Z,57.91
2018-06-04T05:08:14.447Z,57.46
2018-06-04T05:10:40.779Z,56.73
2018-06-04T05:13:07.071Z,56.23
2018-06-04T05:15:34.092Z,56.31
2018-06-04T05:18:01.238Z,56.57
2018-06-04T05:20:28.607Z,57.05
2018-06-04T05:22:54.897Z,56.59
2018-06-04T05:25:21.192Z,56.15
2018-06-04T05:27:47.490Z,55.82
2018-06-04T05:30:13.785Z,55.50
2018-06-04T05:32:40.078Z,55.19
2018-06-04T05:35:06.411Z,54.94
2018-06-04T05:37:32.696Z,54.62
2018-06-04T05:39:58.998Z,54.35
2018-06-04T05:42:25.350Z,55.19
2018-06-04T05:44:51.588Z,55.00
2018-06-04T05:47:17.875Z,55.04
2018-06-04T05:49:44.245Z,54.88
2018-06-04T05:52:10.539Z,55.47
2018-06-04T05:54:36.830Z,57.93
2018-06-04T05:57:03.128Z,59.40
2018-06-04T05:59:29.416Z,60.26
2018-06-04T06:01:55.707Z,61.71
2018-06-04T06:04:21.996Z,62.54
2018-06-04T06:06:48.290Z,63.79
2018-06-04T06:09:14.603Z,64.35
2018-06-04T06:11:40.866Z,64.62
2018-06-04T06:14:07.220Z,65.37
2018-06-04T06:16:33.472Z,65.50
2018-06-04T06:18:59.809Z,66.56
2018-06-04T06:21:26.104Z,66.63
2018-06-04T06:23:52.471Z,65.83
2018-06-04T06:26:18.775Z,66.53
2018-06-04T06:28:45.069Z,67.13
2018-06-04T06:31:11.368Z,67.05
2018-06-04T06:33:37.652Z,67.05
2018-06-04T06:36:03.950Z,67.31
2018-06-04T06:38:30.243Z,67.18
2018-06-04T06:40:56.542Z,67.46
2018-06-04T06:43:22.831Z,67.21
2018-06-04T06:45:49.130Z,67.01
2018-06-04T06:48:15.471Z,67.00
2018-06-04T06:50:41.755Z,66.83
2018-06-04T06:53:08.047Z,66.90
2018-06-04T06:55:34.337Z,66.93
2018-06-04T06:58:00.676Z,67.22
2018-06-04T07:00:27.007Z,66.17
2018-06-04T07:02:53.388Z,66.63
2018-06-04T07:05:19.691Z,67.27
2018-06-04T07:07:45.980Z,66.66
2018-06-04T07:10:12.275Z,65.96
2018-06-04T07:12:38.573Z,65.94
2018-06-04T07:15:04.869Z,65.67
2018-06-04T07:17:31.189Z,65.43
2018-06-04T07:19:57.452Z,65.60
2018-06-04T07:22:23.743Z,65.27
2018-06-04T07:24:50.038Z,64.17
2018-06-04T07:27:16.368Z,64.61
2018-06-04T07:29:42.652Z,64.27
2018-06-04T07:32:08.952Z,64.66
2018-06-04T07:34:35.310Z,63.28
2018-06-04T07:37:01.580Z,63.02
2018-06-04T07:39:27.867Z,63.52
2018-06-04T07:41:54.209Z,52.55
2018-06-04T07:44:20.563Z,50.34
2018-06-04T07:46:46.847Z,50.04
2018-06-04T07:49:13.138Z,50.11
2018-06-04T07:51:39.437Z,49.50
2018-06-04T07:54:05.728Z,50.35
2018-06-04T07:56:32.025Z,49.27
2018-06-04T07:58:58.323Z,50.48
2018-06-04T08:01:24.613Z,48.23
2018-06-04T08:03:50.960Z,48.13
2018-06-04T08:06:17.305Z,49.22
2018-06-04T08:08:43.552Z,48.54
2018-06-04T08:11:09.887Z,48.16
2018-06-04T08:13:36.155Z,47.78
2018-06-04T08:16:02.450Z,47.70
2018-06-04T08:18:28.738Z,47.19
2018-06-04T08:20:55.068Z,46.99
2018-06-04T08:23:21.367Z,47.96
2018-06-04T08:25:47.705Z,46.63
2018-06-04T08:28:13.998Z,46.48
2018-06-04T08:30:40.294Z,46.60
2018-06-04T08:33:06.630Z,50.02
2018-06-04T08:35:32.920Z,52.11
2018-06-04T08:37:59.223Z,53.13
2018-06-04T08:40:25.509Z,53.92
2018-06-04T08:42:51.853Z,53.31
2018-06-04T08:45:18.144Z,52.98
2018-06-04T08:47:44.440Z,53.26
2018-06-04T08:50:10.741Z,53.02
2018-06-04T08:52:37.023Z,52.67
2018-06-04T08:55:03.311Z,53.51
2018-06-04T08:57:29.600Z,53.25
2018-06-04T08:59:55.884Z,52.78
2018-06-04T09:02:22.178Z,52.58
2018-06-04T09:04:48.474Z,52.45
2018-06-04T09:07:14.829Z,52.27
2018-06-04T09:09:41.158Z,52.21
2018-06-04T09:12:07.488Z,52.08
2018-06-04T09:14:33.821Z,51.27
2018-06-04T09:17:00.149Z,51.25
2018-06-04T09:19:26.438Z,51.10
2018-06-04T09:21:52.763Z,51.16
2018-06-04T09:24:19.095Z,50.67
2018-06-04T09:26:45.387Z,49.76
2018-06-04T09:29:11.688Z,48.78
2018-06-04T09:31:38.032Z,49.41
2018-06-04T09:34:04.324Z,48.80
2018-06-04T09:36:30.633Z,48.77
2018-06-04T09:38:56.956Z,49.10
2018-06-04T09:43:56.358Z,46.15
2018-06-04T09:46:16.242Z,46.47
2018-06-04T09:48:42.541Z,46.09
2018-06-04T09:51:08.852Z,44.85
2018-06-04T09:53:35.140Z,43.94
2018-06-04T09:56:06.901Z,44.09
2018-06-04T09:58:31.733Z,44.26
2018-06-04T10:00:58.069Z,43.71
2018-06-04T10:03:24.358Z,43.46
2018-06-04T10:05:50.655Z,42.75
2018-06-04T10:08:16.955Z,43.07
2018-06-04T10:10:43.246Z,42.29
2018-06-04T10:13:09.545Z,41.99
2018-06-04T10:15:35.843Z,41.64
2018-06-04T10:18:02.130Z,42.32
2018-06-04T10:20:28.420Z,42.27
2018-06-04T10:22:54.753Z,41.28
2018-06-04T10:25:21.066Z,41.86
2018-06-04T10:27:47.394Z,41.37
2018-06-04T10:30:13.658Z,41.17
2018-06-04T10:32:39.970Z,41.37
2018-06-04T10:35:09.570Z,42.48
2018-06-04T10:37:36.101Z,42.91
2018-06-04T10:40:02.358Z,43.38
2018-06-04T10:42:28.653Z,43.10
2018-06-04T10:44:54.943Z,43.11
2018-06-04T10:47:21.238Z,43.33
2018-06-04T10:49:47.533Z,43.46
2018-06-04T10:52:13.819Z,43.52
2018-06-04T10:54:40.115Z,43.46
2018-06-04T10:57:06.409Z,43.51
2018-06-04T10:59:38.562Z,42.96
2018-06-04T11:01:59.134Z,42.74
2018-06-04T11:04:25.429Z,42.30
2018-06-04T11:06:51.715Z,40.17
2018-06-04T11:09:18.062Z,39.97
2018-06-04T11:11:44.361Z,40.35
2018-06-04T11:14:10.656Z,39.99
2018-06-04T11:16:36.947Z,39.41
2018-06-04T11:19:03.241Z,39.49
2018-06-04T11:21:29.533Z,38.74
2018-06-04T11:23:55.843Z,38.86
2018-06-04T11:26:22.130Z,37.91
2018-06-04T11:28:48.425Z,38.73
2018-06-04T11:31:14.743Z,38.83
2018-06-04T11:33:41.019Z,38.87
2018-06-04T11:36:07.347Z,38.94
2018-06-04T11:38:33.650Z,39.23
2018-06-04T11:40:59.939Z,39.51
2018-06-04T11:43:26.244Z,39.53
2018-06-04T11:45:52.565Z,39.78
2018-06-04T11:48:18.865Z,39.58
2018-06-04T11:50:45.157Z,39.58
2018-06-04T11:53:11.448Z,39.36
2018-06-04T11:55:37.755Z,39.37
2018-06-04T11:58:04.092Z,39.34
2018-06-04T12:00:30.380Z,39.10
2018-06-04T12:02:56.712Z,38.71
2018-06-04T12:05:23.328Z,39.06
2018-06-04T12:07:49.668Z,38.72
2018-06-04T12:10:16.003Z,38.94
2018-06-04T12:12:42.306Z,38.93
2018-06-04T12:15:08.604Z,39.07
2018-06-04T12:17:34.905Z,38.58
2018-06-04T12:20:01.195Z,38.36
2018-06-04T12:22:27.494Z,38.62
2018-06-04T12:24:53.787Z,38.88
2018-06-04T12:27:20.090Z,38.70
2018-06-04T12:29:46.374Z,38.20
2018-06-04T12:32:12.668Z,38.33
2018-06-04T12:34:38.968Z,38.23
2018-06-04T12:37:05.271Z,38.44
2018-06-04T12:39:31.579Z,38.60
2018-06-04T12:41:57.866Z,38.51
2018-06-04T12:44:24.163Z,38.42
2018-06-04T12:46:50.461Z,37.70
2018-06-04T12:49:16.770Z,37.71
2018-06-04T12:51:43.053Z,38.18
2018-06-04T12:54:09.437Z,37.51
2018-06-04T12:56:35.667Z,37.85
2018-06-04T12:59:01.958Z,38.47
2018-06-04T13:01:28.253Z,38.76
2018-06-04T13:03:54.542Z,39.12
2018-06-04T13:06:20.841Z,39.05
2018-06-04T13:08:47.128Z,39.37
2018-06-04T13:11:13.461Z,39.29
2018-06-04T13:13:39.748Z,39.12
2018-06-04T13:16:06.047Z,38.94
2018-06-04T13:18:32.339Z,39.46
2018-06-04T13:20:58.659Z,38.55
2018-06-04T13:23:24.972Z,38.71
2018-06-04T13:25:51.264Z,38.47
2018-06-04T13:28:17.550Z,38.84
2018-06-04T13:30:43.841Z,39.29
2018-06-04T13:33:10.134Z,39.14
2018-06-04T13:35:36.431Z,38.70
2018-06-04T13:38:02.747Z,38.95
2018-06-04T13:40:29.089Z,39.01
2018-06-04T13:42:55.389Z,39.34
2018-06-04T13:45:21.681Z,39.25
2018-06-04T13:47:48.012Z,39.26
2018-06-04T13:50:14.322Z,38.98
2018-06-04T13:52:40.608Z,38.98
2018-06-04T13:55:06.910Z,38.43
2018-06-04T13:57:33.206Z,38.30
2018-06-04T13:59:59.565Z,38.00
2018-06-04T14:02:25.868Z,38.02
2018-06-04T14:04:52.162Z,38.50
2018-06-04T14:07:18.498Z,38.60
2018-06-04T14:09:44.792Z,38.47
2018-06-04T14:12:11.100Z,38.77
2018-06-04T14:14:37.471Z,38.54
2018-06-04T14:17:03.808Z,38.54
2018-06-04T14:19:30.101Z,38.55
2018-06-04T14:21:56.401Z,38.72
2018-06-04T14:24:22.689Z,38.72
2018-06-04T14:26:49.021Z,38.97
2018-06-04T14:29:15.327Z,38.91
2018-06-04T14:31:41.626Z,39.13
2018-06-04T14:34:07.977Z,39.34
2018-06-04T14:36:34.268Z,39.39
2018-06-04T14:39:00.590Z,39.27
2018-06-04T14:41:26.863Z,39.55
2018-06-04T14:43:53.156Z,39.18
2018-06-04T14:46:19.455Z,39.53
2018-06-04T14:48:45.743Z,39.39
2018-06-04T14:51:12.086Z,39.12
2018-06-04T14:53:38.402Z,39.58
2018-06-04T14:56:04.692Z,39.41
2018-06-04T14:58:31.015Z,39.66
2018-06-04T15:00:57.308Z,39.99
2018-06-04T15:03:23.595Z,40.37
2018-06-04T15:05:52.350Z,40.29
2018-06-04T15:08:20.013Z,40.50
2018-06-04T15:10:45.051Z,39.90
2018-06-04T15:13:11.346Z,39.86
2018-06-04T15:15:37.634Z,39.83
2018-06-04T15:18:03.932Z,39.76
2018-06-04T15:20:30.220Z,39.74
2018-06-04T15:22:56.516Z,40.11
2018-06-04T15:25:22.811Z,40.23
2018-06-04T15:27:49.100Z,40.41
2018-06-04T15:30:15.454Z,40.48
2018-06-04T15:32:41.750Z,40.38
2018-06-04T15:35:08.045Z,40.38
2018-06-04T15:37:34.341Z,40.75
2018-06-04T15:40:00.637Z,40.40
2018-06-04T15:42:26.929Z,40.63
2018-06-04T15:44:53.222Z,40.45
2018-06-04T15:47:19.518Z,40.42
2018-06-04T15:49:45.802Z,40.55
2018-06-04T15:52:12.104Z,40.49
2018-06-04T15:54:38.396Z,40.51
2018-06-04T15:57:04.696Z,40.57
2018-06-04T15:59:31.021Z,40.55
2018-06-04T16:01:57.319Z,40.56
2018-06-04T16:04:23.614Z,40.58
2018-06-04T16:06:49.947Z,40.67
2018-06-04T16:09:16.258Z,40.91
2018-06-04T16:11:42.596Z,40.66
2018-06-04T16:14:08.894Z,40.66
2018-06-04T16:16:35.238Z,40.73
2018-06-04T16:19:01.536Z,40.72
2018-06-04T16:21:27.895Z,41.13
2018-06-04T16:23:54.239Z,41.22
2018-06-04T16:26:20.542Z,41.50
2018-06-04T16:28:46.850Z,41.30
2018-06-04T16:31:13.147Z,41.46
2018-06-04T16:33:39.441Z,41.71
2018-06-04T16:36:05.733Z,41.86
2018-06-04T16:38:32.034Z,42.14
2018-06-04T16:40:58.337Z,42.26
2018-06-04T16:43:24.632Z,42.66
2018-06-04T16:45:50.923Z,42.77
2018-06-04T16:48:17.212Z,42.89
2018-06-04T16:50:43.539Z,42.99
2018-06-04T16:53:09.846Z,43.12
2018-06-04T16:55:36.185Z,43.14
2018-06-04T16:58:02.482Z,43.11
2018-06-04T17:00:28.791Z,42.91
2018-06-04T17:02:55.108Z,42.87
2018-06-04T17:05:21.408Z,42.74
2018-06-04T17:07:47.739Z,42.60
2018-06-04T17:10:14.043Z,42.47
2018-06-04T17:12:40.336Z,42.50
2018-06-04T17:15:06.637Z,42.56
2018-06-04T17:17:32.934Z,42.35
2018-06-04T17:19:59.243Z,42.80
2018-06-04T17:22:25.534Z,42.82
2018-06-04T17:24:51.829Z,42.78
2018-06-04T17:27:18.127Z,42.68
2018-06-04T17:29:44.443Z,42.69
2018-06-04T17:32:10.725Z,42.70
2018-06-04T17:34:37.056Z,42.75
2018-06-04T17:37:03.308Z,42.79
2018-06-04T17:39:29.601Z,42.78
2018-06-04T17:41:55.896Z,42.89
2018-06-04T17:44:22.196Z,43.12
2018-06-04T17:46:48.496Z,43.35
2018-06-04T17:49:14.797Z,43.62
2018-06-04T17:51:41.257Z,44.77
2018-06-04T17:54:07.546Z,45.11
2018-06-04T17:56:33.840Z,45.41
2018-06-04T17:59:00.134Z,48.93
2018-06-04T18:01:26.432Z,50.42
2018-06-04T18:03:52.728Z,47.73
2018-06-04T18:06:19.031Z,50.64
2018-06-04T18:08:45.326Z,50.92
2018-06-04T18:11:23.723Z,51.06
2018-06-04T18:13:45.699Z,52.56
2018-06-04T18:16:12.031Z,53.14
2018-06-04T18:18:38.334Z,53.91
2018-06-04T18:21:04.628Z,52.84
2018-06-04T18:23:30.934Z,52.60
2018-06-04T18:25:57.220Z,52.21
2018-06-04T18:28:23.690Z,51.53
2018-06-04T18:30:52.862Z,51.96
2018-06-04T18:33:19.147Z,51.78
2018-06-04T18:35:45.444Z,51.01
2018-06-04T18:38:11.762Z,50.90
2018-06-04T18:40:38.047Z,51.08
2018-06-04T18:43:04.337Z,51.55
2018-06-04T18:45:30.626Z,50.48
2018-06-04T18:47:56.924Z,51.37
2018-06-04T18:50:23.215Z,50.62
2018-06-04T18:52:49.507Z,51.42
2018-06-04T18:55:15.808Z,50.95
2018-06-04T18:57:42.103Z,50.20
2018-06-04T19:00:08.403Z,50.16
2018-06-04T19:02:34.702Z,49.90
2018-06-04T19:05:01.013Z,50.77
2018-06-04T19:07:27.300Z,51.24
2018-06-04T19:09:53.616Z,48.33
2018-06-04T19:12:19.908Z,49.34
2018-06-04T19:14:46.194Z,49.90
2018-06-04T19:17:15.607Z,50.25
2018-06-04T19:19:41.909Z,51.48
2018-06-04T19:22:08.204Z,52.92
2018-06-04T19:24:34.522Z,52.90
2018-06-04T19:27:00.818Z,53.37
2018-06-04T19:29:27.123Z,53.56
2018-06-04T19:31:53.451Z,54.16
2018-06-04T19:34:19.726Z,54.24
2018-06-04T19:36:46.060Z,54.43
2018-06-04T19:39:12.404Z,54.51
2018-06-04T19:41:38.656Z,54.46
2018-06-04T19:44:04.951Z,54.31
2018-06-04T19:46:31.245Z,54.84
2018-06-04T19:48:57.544Z,55.08
2018-06-04T19:51:23.849Z,55.06
2018-06-04T19:53:50.182Z,56.01
2018-06-04T19:56:16.480Z,56.51
2018-06-04T19:58:42.842Z,55.82
2018-06-04T20:01:09.138Z,55.55
2018-06-04T20:03:35.492Z,55.94
2018-06-04T20:06:01.789Z,56.66
2018-06-04T20:08:28.133Z,57.30
2018-06-04T20:10:54.419Z,58.25
2018-06-04T20:13:20.717Z,58.52
2018-06-04T20:15:47.034Z,58.85
2018-06-04T20:18:13.466Z,58.81
2018-06-04T20:20:39.758Z,59.23
2018-06-04T20:23:06.048Z,59.17
2018-06-04T20:25:32.347Z,59.19
2018-06-04T20:27:58.635Z,58.85
2018-06-04T20:30:24.967Z,58.92
2018-06-04T20:32:51.265Z,58.83
2018-06-04T20:35:17.549Z,58.68
2018-06-04T20:37:43.838Z,58.37
2018-06-04T20:40:10.187Z,58.41
2018-06-04T20:42:36.482Z,58.30
2018-06-04T20:45:02.781Z,58.54
2018-06-04T20:47:29.100Z,58.51
2018-06-04T20:49:55.391Z,58.39
2018-06-04T20:52:21.685Z,58.09
2018-06-04T20:54:47.975Z,58.01
2018-06-04T20:57:14.262Z,57.89
2018-06-04T20:59:40.595Z,57.66
2018-06-04T21:02:06.890Z,57.73
2018-06-04T21:04:33.175Z,57.82
2018-06-04T21:06:59.466Z,57.59
2018-06-04T21:09:25.772Z,57.30
2018-06-04T21:11:52.061Z,57.54
2018-06-04T21:14:18.347Z,57.20
2018-06-04T21:16:44.685Z,56.85
2018-06-04T21:19:10.988Z,56.39
2018-06-04T21:21:37.316Z,56.45
2018-06-04T21:24:03.628Z,57.05
2018-06-04T21:26:29.923Z,57.36
2018-06-04T21:28:56.220Z,57.73
2018-06-04T21:31:22.508Z,57.55
2018-06-04T21:33:48.800Z,57.46
2018-06-04T21:36:15.086Z,58.09
2018-06-04T21:38:41.493Z,57.79
2018-06-04T21:41:07.788Z,57.43
2018-06-04T21:43:34.084Z,57.33
2018-06-04T21:46:00.384Z,57.19
2018-06-04T21:48:26.675Z,57.04
2018-06-04T21:50:53.048Z,56.92
2018-06-04T21:53:19.343Z,57.04
2018-06-04T21:55:45.680Z,56.71
2018-06-04T21:58:11.969Z,56.86
2018-06-04T22:00:38.259Z,57.38
2018-06-04T22:03:04.548Z,58.03
2018-06-04T22:05:30.848Z,58.37
2018-06-04T22:07:57.146Z,58.68
2018-06-04T22:10:23.439Z,59.07
2018-06-04T22:12:49.725Z,59.41
2018-06-04T22:15:16.053Z,59.46
2018-06-04T22:17:42.316Z,59.82
2018-06-04T22:20:08.613Z,59.63
2018-06-04T22:22:37.923Z,59.45
2018-06-04T22:25:04.224Z,59.61
2018-06-04T22:27:30.525Z,59.44
2018-06-04T22:29:56.820Z,59.50
2018-06-04T22:32:23.106Z,59.55
2018-06-04T22:34:49.410Z,59.66
2018-06-04T22:37:15.699Z,59.55
2018-06-04T22:39:41.980Z,59.80
2018-06-04T22:42:08.283Z,60.00
2018-06-04T22:44:34.581Z,59.79
2018-06-04T22:47:00.880Z,59.66
2018-06-04T22:49:27.176Z,59.74
2018-06-04T22:51:53.477Z,60.04
2018-06-04T22:54:19.769Z,60.28
2018-06-04T22:56:46.067Z,60.27
2018-06-04T22:59:12.365Z,60.40
2018-06-04T23:01:38.657Z,60.68
2018-06-04T23:04:04.943Z,60.71
2018-06-04T23:06:31.279Z,60.75
2018-06-04T23:08:57.570Z,60.84
2018-06-04T23:11:23.904Z,61.11
2018-06-04T23:13:50.191Z,61.20
2018-06-04T23:16:16.523Z,61.16
2018-06-04T23:18:42.821Z,61.20
2018-06-04T23:21:09.149Z,61.25
2018-06-04T23:23:35.455Z,61.32
2018-06-04T23:26:01.789Z,61.46
2018-06-04T23:28:28.084Z,61.48
2018-06-04T23:30:54.380Z,61.48
2018-06-04T23:33:20.682Z,61.49
2018-06-04T23:35:47.008Z,61.04
2018-06-04T23:38:13.338Z,61.49
2018-06-04T23:40:39.626Z,61.81
2018-06-04T23:43:05.921Z,61.83
2018-06-04T23:45:32.221Z,62.39
2018-06-04T23:47:58.516Z,62.01
2018-06-04T23:50:24.805Z,62.08
2018-06-04T23:52:51.102Z,62.42
2018-06-04T23:55:17.400Z,62.40
2018-06-04T23:57:43.722Z,62.37
